sensor_id;sensor_type;location;lat;lon;timestamp;P1;durP1;ratioP1;P2;durP2;ratioP2
42614;SDS011;28754;47.700;7.924;2022-11-21T00:14:18;59.88;;;6.15;;
42614;SDS011;28754;47.700;7.924;2022-11-21T00:19:42;295.83;;;22.35;;
42614;SDS011;28754;47.700;7.924;2022-11-21T00:28:02;81.40;;;7.93;;
42614;SDS011;28754;47.700;7.924;2022-11-21T00:30:49;145.82;;;11.20;;
42614;SDS011;28754;47.700;7.924;2022-11-21T00:33:37;428.45;;;39.60;;
42614;SDS011;28754;47.700;7.924;2022-11-21T00:36:24;159.68;;;12.45;;
42614;SDS011;28754;47.700;7.924;2022-11-21T00:39:11;346.52;;;29.88;;
42614;SDS011;28754;47.700;7.924;2022-11-21T00:41:58;89.47;;;8.18;;
42614;SDS011;28754;47.700;7.924;2022-11-21T00:44:45;83.68;;;8.43;;
42614;SDS011;28754;47.700;7.924;2022-11-21T00:47:33;137.15;;;13.52;;
42614;SDS011;28754;47.700;7.924;2022-11-21T00:50:20;403.75;;;34.85;;
42614;SDS011;28754;47.700;7.924;2022-11-21T00:53:07;119.30;;;9.30;;
42614;SDS011;28754;47.700;7.924;2022-11-21T00:55:54;312.98;;;21.67;;
42614;SDS011;28754;47.700;7.924;2022-11-21T00:58:42;225.45;;;16.33;;
42614;SDS011;28754;47.700;7.924;2022-11-21T01:01:30;49.83;;;5.63;;
42614;SDS011;28754;47.700;7.924;2022-11-21T01:04:17;10.68;;;1.85;;
42614;SDS011;28754;47.700;7.924;2022-11-21T01:07:07;4.75;;;1.30;;
42614;SDS011;28754;47.700;7.924;2022-11-21T01:09:54;5.65;;;1.63;;
42614;SDS011;28754;47.700;7.924;2022-11-21T01:12:41;16.90;;;2.50;;
42614;SDS011;28754;47.700;7.924;2022-11-21T01:15:29;96.57;;;7.13;;
42614;SDS011;28754;47.700;7.924;2022-11-21T01:18:16;374.08;;;32.92;;
42614;SDS011;28754;47.700;7.924;2022-11-21T01:21:10;53.72;;;5.82;;
42614;SDS011;28754;47.700;7.924;2022-11-21T01:24:00;22.52;;;2.90;;
42614;SDS011;28754;47.700;7.924;2022-11-21T01:26:49;5.25;;;1.50;;
42614;SDS011;28754;47.700;7.924;2022-11-21T01:29:38;261.67;;;19.92;;
42614;SDS011;28754;47.700;7.924;2022-11-21T01:32:26;13.02;;;2.30;;
42614;SDS011;28754;47.700;7.924;2022-11-21T01:35:13;7.97;;;1.50;;
42614;SDS011;28754;47.700;7.924;2022-11-21T01:38:01;7.57;;;1.92;;
42614;SDS011;28754;47.700;7.924;2022-11-21T01:40:51;29.25;;;2.33;;
42614;SDS011;28754;47.700;7.924;2022-11-21T01:43:38;68.72;;;6.50;;
42614;SDS011;28754;47.700;7.924;2022-11-21T01:46:26;21.73;;;2.67;;
42614;SDS011;28754;47.700;7.924;2022-11-21T01:49:30;24.65;;;2.95;;
42614;SDS011;28754;47.700;7.924;2022-11-21T01:55:10;12.90;;;1.35;;
42614;SDS011;28754;47.700;7.924;2022-11-21T01:57:57;5.97;;;0.95;;
42614;SDS011;28754;47.700;7.924;2022-11-21T02:00:44;7.40;;;1.75;;
42614;SDS011;28754;47.700;7.924;2022-11-21T02:03:33;8.32;;;1.33;;
42614;SDS011;28754;47.700;7.924;2022-11-21T02:06:23;7.60;;;1.63;;
42614;SDS011;28754;47.700;7.924;2022-11-21T02:09:11;6.28;;;1.63;;
42614;SDS011;28754;47.700;7.924;2022-11-21T02:11:58;20.70;;;2.35;;
42614;SDS011;28754;47.700;7.924;2022-11-21T02:14:52;18.75;;;1.83;;
42614;SDS011;28754;47.700;7.924;2022-11-21T02:17:41;35.47;;;3.13;;
42614;SDS011;28754;47.700;7.924;2022-11-21T02:20:27;83.10;;;6.18;;
42614;SDS011;28754;47.700;7.924;2022-11-21T02:23:26;4.20;;;1.23;;
42614;SDS011;28754;47.700;7.924;2022-11-21T02:26:35;4.15;;;1.20;;
42614;SDS011;28754;47.700;7.924;2022-11-21T02:29:23;9.13;;;2.15;;
42614;SDS011;28754;47.700;7.924;2022-11-21T02:32:19;11.88;;;1.35;;
42614;SDS011;28754;47.700;7.924;2022-11-21T02:35:17;2.63;;;0.88;;
42614;SDS011;28754;47.700;7.924;2022-11-21T02:38:16;1.85;;;0.60;;
42614;SDS011;28754;47.700;7.924;2022-11-21T02:41:11;40.05;;;3.72;;
42614;SDS011;28754;47.700;7.924;2022-11-21T02:44:17;59.30;;;4.15;;
42614;SDS011;28754;47.700;7.924;2022-11-21T02:47:09;28.75;;;2.50;;
42614;SDS011;28754;47.700;7.924;2022-11-21T02:49:59;31.95;;;2.97;;
42614;SDS011;28754;47.700;7.924;2022-11-21T02:53:05;264.65;;;20.25;;
42614;SDS011;28754;47.700;7.924;2022-11-21T02:55:54;174.55;;;14.13;;
42614;SDS011;28754;47.700;7.924;2022-11-21T02:58:41;109.13;;;7.40;;
42614;SDS011;28754;47.700;7.924;2022-11-21T03:05:54;222.90;;;17.85;;
42614;SDS011;28754;47.700;7.924;2022-11-21T03:10:23;43.38;;;4.05;;
42614;SDS011;28754;47.700;7.924;2022-11-21T03:13:10;110.40;;;8.10;;
42614;SDS011;28754;47.700;7.924;2022-11-21T03:15:57;314.08;;;26.45;;
42614;SDS011;28754;47.700;7.924;2022-11-21T03:18:44;119.15;;;9.80;;
42614;SDS011;28754;47.700;7.924;2022-11-21T03:21:31;392.63;;;27.48;;
42614;SDS011;28754;47.700;7.924;2022-11-21T03:24:17;251.38;;;18.70;;
42614;SDS011;28754;47.700;7.924;2022-11-21T03:27:04;245.73;;;16.52;;
42614;SDS011;28754;47.700;7.924;2022-11-21T03:29:51;302.92;;;25.83;;
42614;SDS011;28754;47.700;7.924;2022-11-21T03:32:38;299.33;;;21.40;;
42614;SDS011;28754;47.700;7.924;2022-11-21T03:35:24;276.73;;;20.45;;
42614;SDS011;28754;47.700;7.924;2022-11-21T03:38:11;374.35;;;27.67;;
42614;SDS011;28754;47.700;7.924;2022-11-21T03:41:02;193.00;;;16.25;;
42614;SDS011;28754;47.700;7.924;2022-11-21T03:43:51;180.27;;;12.27;;
42614;SDS011;28754;47.700;7.924;2022-11-21T03:46:39;24.20;;;2.95;;
42614;SDS011;28754;47.700;7.924;2022-11-21T03:49:28;43.83;;;5.18;;
42614;SDS011;28754;47.700;7.924;2022-11-21T03:52:15;58.75;;;4.82;;
42614;SDS011;28754;47.700;7.924;2022-11-21T03:55:02;29.45;;;2.60;;
42614;SDS011;28754;47.700;7.924;2022-11-21T03:57:49;32.25;;;3.53;;
42614;SDS011;28754;47.700;7.924;2022-11-21T04:00:36;96.18;;;8.65;;
42614;SDS011;28754;47.700;7.924;2022-11-21T04:03:23;11.65;;;2.05;;
42614;SDS011;28754;47.700;7.924;2022-11-21T04:06:10;34.70;;;3.15;;
42614;SDS011;28754;47.700;7.924;2022-11-21T04:08:59;12.32;;;3.13;;
42614;SDS011;28754;47.700;7.924;2022-11-21T04:11:46;12.75;;;2.25;;
42614;SDS011;28754;47.700;7.924;2022-11-21T04:14:32;1.67;;;0.60;;
42614;SDS011;28754;47.700;7.924;2022-11-21T04:17:19;8.02;;;1.33;;
42614;SDS011;28754;47.700;7.924;2022-11-21T04:20:06;1.00;;;0.45;;
42614;SDS011;28754;47.700;7.924;2022-11-21T04:22:53;5.78;;;0.55;;
42614;SDS011;28754;47.700;7.924;2022-11-21T04:25:40;0.73;;;0.28;;
42614;SDS011;28754;47.700;7.924;2022-11-21T04:28:27;12.38;;;1.10;;
42614;SDS011;28754;47.700;7.924;2022-11-21T04:31:13;3.10;;;0.70;;
42614;SDS011;28754;47.700;7.924;2022-11-21T04:34:00;5.43;;;1.27;;
42614;SDS011;28754;47.700;7.924;2022-11-21T04:36:47;0.98;;;0.52;;
42614;SDS011;28754;47.700;7.924;2022-11-21T04:39:34;0.30;;;0.13;;
42614;SDS011;28754;47.700;7.924;2022-11-21T04:42:20;0.30;;;0.20;;
42614;SDS011;28754;47.700;7.924;2022-11-21T04:45:07;0.70;;;0.57;;
42614;SDS011;28754;47.700;7.924;2022-11-21T04:47:55;0.98;;;0.20;;
42614;SDS011;28754;47.700;7.924;2022-11-21T04:50:41;1.25;;;0.28;;
42614;SDS011;28754;47.700;7.924;2022-11-21T04:53:28;64.13;;;4.43;;
42614;SDS011;28754;47.700;7.924;2022-11-21T04:56:15;178.02;;;14.07;;
42614;SDS011;28754;47.700;7.924;2022-11-21T04:59:01;163.88;;;13.40;;
42614;SDS011;28754;47.700;7.924;2022-11-21T05:05:55;278.73;;;16.85;;
42614;SDS011;28754;47.700;7.924;2022-11-21T05:08:42;49.85;;;4.10;;
42614;SDS011;28754;47.700;7.924;2022-11-21T05:11:29;13.23;;;2.03;;
42614;SDS011;28754;47.700;7.924;2022-11-21T05:14:35;18.02;;;2.83;;
42614;SDS011;28754;47.700;7.924;2022-11-21T05:17:21;38.58;;;3.30;;
42614;SDS011;28754;47.700;7.924;2022-11-21T05:20:08;6.45;;;1.85;;
42614;SDS011;28754;47.700;7.924;2022-11-21T05:22:56;4.38;;;1.25;;
42614;SDS011;28754;47.700;7.924;2022-11-21T05:25:43;7.28;;;1.40;;
42614;SDS011;28754;47.700;7.924;2022-11-21T05:28:30;5.90;;;1.25;;
42614;SDS011;28754;47.700;7.924;2022-11-21T05:31:16;5.45;;;1.35;;
42614;SDS011;28754;47.700;7.924;2022-11-21T05:34:03;6.85;;;2.55;;
42614;SDS011;28754;47.700;7.924;2022-11-21T05:36:53;4.55;;;1.13;;
42614;SDS011;28754;47.700;7.924;2022-11-21T05:39:42;8.40;;;1.13;;
42614;SDS011;28754;47.700;7.924;2022-11-21T05:42:28;2.47;;;0.68;;
42614;SDS011;28754;47.700;7.924;2022-11-21T05:45:34;5.00;;;0.75;;
42614;SDS011;28754;47.700;7.924;2022-11-21T05:48:20;2.10;;;0.73;;
42614;SDS011;28754;47.700;7.924;2022-11-21T05:51:07;2.17;;;0.75;;
42614;SDS011;28754;47.700;7.924;2022-11-21T05:53:54;5.82;;;0.98;;
42614;SDS011;28754;47.700;7.924;2022-11-21T05:56:41;6.30;;;1.00;;
42614;SDS011;28754;47.700;7.924;2022-11-21T05:59:28;3.42;;;0.90;;
42614;SDS011;28754;47.700;7.924;2022-11-21T06:02:15;6.22;;;1.25;;
42614;SDS011;28754;47.700;7.924;2022-11-21T06:05:20;6.05;;;0.93;;
42614;SDS011;28754;47.700;7.924;2022-11-21T06:08:06;4.45;;;1.10;;
42614;SDS011;28754;47.700;7.924;2022-11-21T06:10:53;6.13;;;1.38;;
42614;SDS011;28754;47.700;7.924;2022-11-21T06:13:40;8.75;;;1.92;;
42614;SDS011;28754;47.700;7.924;2022-11-21T06:16:27;8.32;;;2.38;;
42614;SDS011;28754;47.700;7.924;2022-11-21T06:19:14;5.93;;;1.48;;
42614;SDS011;28754;47.700;7.924;2022-11-21T06:22:01;3.67;;;0.82;;
42614;SDS011;28754;47.700;7.924;2022-11-21T06:24:48;2.35;;;0.75;;
42614;SDS011;28754;47.700;7.924;2022-11-21T06:27:34;2.75;;;0.75;;
42614;SDS011;28754;47.700;7.924;2022-11-21T06:30:21;43.90;;;4.13;;
42614;SDS011;28754;47.700;7.924;2022-11-21T06:33:08;3.97;;;0.95;;
42614;SDS011;28754;47.700;7.924;2022-11-21T06:35:54;83.13;;;6.65;;
42614;SDS011;28754;47.700;7.924;2022-11-21T06:38:41;3.50;;;1.73;;
42614;SDS011;28754;47.700;7.924;2022-11-21T06:41:29;6.32;;;1.58;;
42614;SDS011;28754;47.700;7.924;2022-11-21T06:44:17;0.65;;;0.40;;
42614;SDS011;28754;47.700;7.924;2022-11-21T06:47:03;3.28;;;0.85;;
42614;SDS011;28754;47.700;7.924;2022-11-21T06:49:50;4.38;;;1.15;;
42614;SDS011;28754;47.700;7.924;2022-11-21T06:52:37;2.13;;;0.80;;
42614;SDS011;28754;47.700;7.924;2022-11-21T06:55:24;4.68;;;1.58;;
42614;SDS011;28754;47.700;7.924;2022-11-21T06:58:12;3.05;;;0.80;;
42614;SDS011;28754;47.700;7.924;2022-11-21T07:01:05;1.98;;;1.15;;
42614;SDS011;28754;47.700;7.924;2022-11-21T07:03:55;5.53;;;1.80;;
42614;SDS011;28754;47.700;7.924;2022-11-21T07:06:41;5.55;;;1.00;;
42614;SDS011;28754;47.700;7.924;2022-11-21T07:09:28;6.63;;;2.60;;
42614;SDS011;28754;47.700;7.924;2022-11-21T07:12:15;4.78;;;1.58;;
42614;SDS011;28754;47.700;7.924;2022-11-21T07:15:20;13.60;;;2.35;;
42614;SDS011;28754;47.700;7.924;2022-11-21T07:18:06;12.50;;;1.65;;
42614;SDS011;28754;47.700;7.924;2022-11-21T07:20:56;124.60;;;10.55;;
42614;SDS011;28754;47.700;7.924;2022-11-21T07:23:45;173.82;;;13.13;;
42614;SDS011;28754;47.700;7.924;2022-11-21T07:26:32;29.60;;;3.10;;
42614;SDS011;28754;47.700;7.924;2022-11-21T07:29:18;45.60;;;5.68;;
42614;SDS011;28754;47.700;7.924;2022-11-21T07:32:05;12.27;;;2.75;;
42614;SDS011;28754;47.700;7.924;2022-11-21T07:34:52;10.35;;;2.75;;
42614;SDS011;28754;47.700;7.924;2022-11-21T07:37:38;10.30;;;2.58;;
42614;SDS011;28754;47.700;7.924;2022-11-21T07:40:25;69.28;;;5.18;;
42614;SDS011;28754;47.700;7.924;2022-11-21T07:43:12;16.13;;;2.38;;
42614;SDS011;28754;47.700;7.924;2022-11-21T07:45:59;84.97;;;8.20;;
42614;SDS011;28754;47.700;7.924;2022-11-21T07:48:46;373.60;;;25.10;;
42614;SDS011;28754;47.700;7.924;2022-11-21T07:51:32;378.50;;;27.52;;
42614;SDS011;28754;47.700;7.924;2022-11-21T07:54:19;43.05;;;3.58;;
42614;SDS011;28754;47.700;7.924;2022-11-21T07:57:06;51.75;;;7.50;;
42614;SDS011;28754;47.700;7.924;2022-11-21T07:59:52;16.60;;;2.78;;
42614;SDS011;28754;47.700;7.924;2022-11-21T08:02:39;14.73;;;2.20;;
42614;SDS011;28754;47.700;7.924;2022-11-21T08:05:26;9.32;;;2.25;;
42614;SDS011;28754;47.700;7.924;2022-11-21T08:08:13;10.93;;;2.53;;
42614;SDS011;28754;47.700;7.924;2022-11-21T08:11:03;20.77;;;3.55;;
42614;SDS011;28754;47.700;7.924;2022-11-21T08:13:51;13.48;;;2.35;;
42614;SDS011;28754;47.700;7.924;2022-11-21T08:16:38;10.43;;;2.17;;
42614;SDS011;28754;47.700;7.924;2022-11-21T08:19:25;11.07;;;2.30;;
42614;SDS011;28754;47.700;7.924;2022-11-21T08:22:11;11.52;;;2.35;;
42614;SDS011;28754;47.700;7.924;2022-11-21T08:24:58;17.00;;;2.33;;
42614;SDS011;28754;47.700;7.924;2022-11-21T08:27:44;6.50;;;1.90;;
42614;SDS011;28754;47.700;7.924;2022-11-21T08:30:31;11.25;;;1.88;;
42614;SDS011;28754;47.700;7.924;2022-11-21T08:33:19;15.00;;;2.20;;
42614;SDS011;28754;47.700;7.924;2022-11-21T08:36:06;11.40;;;2.05;;
42614;SDS011;28754;47.700;7.924;2022-11-21T08:38:53;12.23;;;2.92;;
42614;SDS011;28754;47.700;7.924;2022-11-21T08:41:40;22.70;;;2.35;;
42614;SDS011;28754;47.700;7.924;2022-11-21T08:44:45;133.98;;;9.63;;
42614;SDS011;28754;47.700;7.924;2022-11-21T08:47:32;22.35;;;3.05;;
42614;SDS011;28754;47.700;7.924;2022-11-21T08:50:19;11.82;;;1.80;;
42614;SDS011;28754;47.700;7.924;2022-11-21T08:53:07;15.68;;;2.63;;
42614;SDS011;28754;47.700;7.924;2022-11-21T08:55:54;21.00;;;2.85;;
42614;SDS011;28754;47.700;7.924;2022-11-21T08:58:41;8.27;;;2.47;;
42614;SDS011;28754;47.700;7.924;2022-11-21T09:01:28;7.82;;;1.77;;
42614;SDS011;28754;47.700;7.924;2022-11-21T09:04:14;9.75;;;2.42;;
42614;SDS011;28754;47.700;7.924;2022-11-21T09:07:01;11.63;;;2.05;;
42614;SDS011;28754;47.700;7.924;2022-11-21T09:09:49;16.10;;;2.28;;
42614;SDS011;28754;47.700;7.924;2022-11-21T09:12:36;5.00;;;2.25;;
42614;SDS011;28754;47.700;7.924;2022-11-21T09:15:23;7.32;;;1.80;;
42614;SDS011;28754;47.700;7.924;2022-11-21T09:18:28;8.10;;;2.28;;
42614;SDS011;28754;47.700;7.924;2022-11-21T09:21:17;10.07;;;1.80;;
42614;SDS011;28754;47.700;7.924;2022-11-21T09:24:07;14.88;;;1.95;;
42614;SDS011;28754;47.700;7.924;2022-11-21T09:26:57;14.30;;;2.72;;
42614;SDS011;28754;47.700;7.924;2022-11-21T09:29:45;13.45;;;2.95;;
42614;SDS011;28754;47.700;7.924;2022-11-21T09:32:31;10.90;;;2.72;;
42614;SDS011;28754;47.700;7.924;2022-11-21T09:35:18;11.23;;;2.13;;
42614;SDS011;28754;47.700;7.924;2022-11-21T09:38:05;11.73;;;2.95;;
42614;SDS011;28754;47.700;7.924;2022-11-21T09:40:55;25.38;;;3.72;;
42614;SDS011;28754;47.700;7.924;2022-11-21T09:47:35;7.30;;;1.80;;
42614;SDS011;28754;47.700;7.924;2022-11-21T09:50:33;12.00;;;2.35;;
42614;SDS011;28754;47.700;7.924;2022-11-21T09:53:27;7.60;;;2.53;;
42614;SDS011;28754;47.700;7.924;2022-11-21T09:56:21;15.50;;;2.28;;
42614;SDS011;28754;47.700;7.924;2022-11-21T10:02:20;10.68;;;2.97;;
42614;SDS011;28754;47.700;7.924;2022-11-21T10:05:12;9.52;;;2.65;;
42614;SDS011;28754;47.700;7.924;2022-11-21T10:08:04;6.00;;;2.08;;
42614;SDS011;28754;47.700;7.924;2022-11-21T10:14:22;12.07;;;3.00;;
42614;SDS011;28754;47.700;7.924;2022-11-21T10:21:05;10.13;;;3.70;;
42614;SDS011;28754;47.700;7.924;2022-11-21T10:27:04;7.45;;;1.77;;
42614;SDS011;28754;47.700;7.924;2022-11-21T10:30:17;13.70;;;3.38;;
42614;SDS011;28754;47.700;7.924;2022-11-21T10:33:08;11.13;;;2.22;;
42614;SDS011;28754;47.700;7.924;2022-11-21T10:39:45;2.97;;;1.30;;
42614;SDS011;28754;47.700;7.924;2022-11-21T10:42:37;6.57;;;2.00;;
42614;SDS011;28754;47.700;7.924;2022-11-21T10:45:34;5.95;;;1.25;;
42614;SDS011;28754;47.700;7.924;2022-11-21T10:48:21;6.25;;;1.45;;
42614;SDS011;28754;47.700;7.924;2022-11-21T10:54:05;5.85;;;1.40;;
42614;SDS011;28754;47.700;7.924;2022-11-21T10:57:16;15.75;;;2.28;;
42614;SDS011;28754;47.700;7.924;2022-11-21T11:03:03;3.42;;;1.27;;
42614;SDS011;28754;47.700;7.924;2022-11-21T11:06:01;3.47;;;1.35;;
42614;SDS011;28754;47.700;7.924;2022-11-21T11:08:49;2.85;;;1.10;;
42614;SDS011;28754;47.700;7.924;2022-11-21T11:11:37;2.00;;;0.85;;
42614;SDS011;28754;47.700;7.924;2022-11-21T11:14:29;3.35;;;1.02;;
42614;SDS011;28754;47.700;7.924;2022-11-21T11:17:30;7.18;;;1.48;;
42614;SDS011;28754;47.700;7.924;2022-11-21T11:23:29;2.15;;;0.70;;
42614;SDS011;28754;47.700;7.924;2022-11-21T11:26:17;4.25;;;0.98;;
42614;SDS011;28754;47.700;7.924;2022-11-21T11:29:14;5.70;;;1.13;;
42614;SDS011;28754;47.700;7.924;2022-11-21T11:32:14;4.38;;;1.00;;
42614;SDS011;28754;47.700;7.924;2022-11-21T11:35:24;5.95;;;1.23;;
42614;SDS011;28754;47.700;7.924;2022-11-21T11:38:14;1.55;;;0.70;;
42614;SDS011;28754;47.700;7.924;2022-11-21T11:41:04;4.72;;;1.48;;
42614;SDS011;28754;47.700;7.924;2022-11-21T11:44:12;2.72;;;1.00;;
42614;SDS011;28754;47.700;7.924;2022-11-21T11:47:28;3.50;;;1.00;;
42614;SDS011;28754;47.700;7.924;2022-11-21T11:50:42;2.72;;;0.73;;
42614;SDS011;28754;47.700;7.924;2022-11-21T11:53:42;3.90;;;0.93;;
42614;SDS011;28754;47.700;7.924;2022-11-21T11:56:36;2.70;;;0.90;;
42614;SDS011;28754;47.700;7.924;2022-11-21T11:59:37;1.35;;;0.60;;
42614;SDS011;28754;47.700;7.924;2022-11-21T12:03:17;4.93;;;1.30;;
42614;SDS011;28754;47.700;7.924;2022-11-21T12:06:27;2.53;;;1.00;;
42614;SDS011;28754;47.700;7.924;2022-11-21T12:09:53;2.78;;;1.15;;
42614;SDS011;28754;47.700;7.924;2022-11-21T12:13:10;4.38;;;0.90;;
42614;SDS011;28754;47.700;7.924;2022-11-21T12:16:03;4.00;;;0.93;;
42614;SDS011;28754;47.700;7.924;2022-11-21T12:18:59;1.88;;;0.52;;
42614;SDS011;28754;47.700;7.924;2022-11-21T12:21:55;2.58;;;0.70;;
42614;SDS011;28754;47.700;7.924;2022-11-21T12:24:42;7.28;;;1.13;;
42614;SDS011;28754;47.700;7.924;2022-11-21T12:30:28;4.03;;;2.20;;
42614;SDS011;28754;47.700;7.924;2022-11-21T12:33:40;6.60;;;2.25;;
42614;SDS011;28754;47.700;7.924;2022-11-21T12:54:56;2.17;;;1.17;;
42614;SDS011;28754;47.700;7.924;2022-11-21T12:58:07;2.47;;;0.80;;
42614;SDS011;28754;47.700;7.924;2022-11-21T13:05:15;2.78;;;1.20;;
42614;SDS011;28754;47.700;7.924;2022-11-21T13:08:21;3.83;;;1.45;;
42614;SDS011;28754;47.700;7.924;2022-11-21T13:21:38;3.95;;;1.30;;
42614;SDS011;28754;47.700;7.924;2022-11-21T13:24:52;13.25;;;3.35;;
42614;SDS011;28754;47.700;7.924;2022-11-21T13:27:42;5.53;;;2.45;;
42614;SDS011;28754;47.700;7.924;2022-11-21T13:30:29;3.22;;;1.60;;
42614;SDS011;28754;47.700;7.924;2022-11-21T13:42:01;9.13;;;2.10;;
42614;SDS011;28754;47.700;7.924;2022-11-21T13:45:54;7.22;;;2.35;;
42614;SDS011;28754;47.700;7.924;2022-11-21T13:51:52;6.90;;;2.53;;
42614;SDS011;28754;47.700;7.924;2022-11-21T13:58:21;8.95;;;2.08;;
42614;SDS011;28754;47.700;7.924;2022-11-21T14:01:47;6.93;;;1.65;;
42614;SDS011;28754;47.700;7.924;2022-11-21T14:08:15;7.05;;;2.08;;
42614;SDS011;28754;47.700;7.924;2022-11-21T14:11:18;5.07;;;1.75;;
42614;SDS011;28754;47.700;7.924;2022-11-21T14:14:27;3.47;;;1.70;;
42614;SDS011;28754;47.700;7.924;2022-11-21T14:20:18;14.48;;;6.72;;
42614;SDS011;28754;47.700;7.924;2022-11-21T14:32:13;10.20;;;2.78;;
42614;SDS011;28754;47.700;7.924;2022-11-21T14:35:14;5.38;;;1.67;;
42614;SDS011;28754;47.700;7.924;2022-11-21T14:38:06;6.22;;;3.10;;
42614;SDS011;28754;47.700;7.924;2022-11-21T14:44:21;5.30;;;1.67;;
42614;SDS011;28754;47.700;7.924;2022-11-21T14:47:13;6.32;;;1.63;;
42614;SDS011;28754;47.700;7.924;2022-11-21T14:50:03;4.63;;;1.85;;
42614;SDS011;28754;47.700;7.924;2022-11-21T14:52:51;5.10;;;1.85;;
42614;SDS011;28754;47.700;7.924;2022-11-21T14:55:42;8.40;;;1.58;;
42614;SDS011;28754;47.700;7.924;2022-11-21T14:58:36;4.63;;;1.00;;
42614;SDS011;28754;47.700;7.924;2022-11-21T15:01:31;6.75;;;1.58;;
42614;SDS011;28754;47.700;7.924;2022-11-21T15:04:21;7.10;;;1.52;;
42614;SDS011;28754;47.700;7.924;2022-11-21T15:07:21;3.55;;;1.38;;
42614;SDS011;28754;47.700;7.924;2022-11-21T15:10:11;2.75;;;1.60;;
42614;SDS011;28754;47.700;7.924;2022-11-21T15:13:06;10.05;;;2.40;;
42614;SDS011;28754;47.700;7.924;2022-11-21T15:16:01;4.93;;;1.40;;
42614;SDS011;28754;47.700;7.924;2022-11-21T15:18:49;4.55;;;1.42;;
42614;SDS011;28754;47.700;7.924;2022-11-21T15:21:38;3.08;;;1.35;;
42614;SDS011;28754;47.700;7.924;2022-11-21T15:27:29;8.18;;;2.03;;
42614;SDS011;28754;47.700;7.924;2022-11-21T15:33:17;8.07;;;1.77;;
42614;SDS011;28754;47.700;7.924;2022-11-21T15:36:14;5.65;;;1.50;;
42614;SDS011;28754;47.700;7.924;2022-11-21T15:39:20;7.80;;;1.48;;
42614;SDS011;28754;47.700;7.924;2022-11-21T15:48:07;4.07;;;1.50;;
42614;SDS011;28754;47.700;7.924;2022-11-21T15:50:54;5.95;;;1.75;;
42614;SDS011;28754;47.700;7.924;2022-11-21T15:53:42;6.65;;;2.90;;
42614;SDS011;28754;47.700;7.924;2022-11-21T15:56:28;7.22;;;2.80;;
42614;SDS011;28754;47.700;7.924;2022-11-21T15:59:16;8.02;;;2.75;;
42614;SDS011;28754;47.700;7.924;2022-11-21T16:05:18;6.90;;;1.58;;
42614;SDS011;28754;47.700;7.924;2022-11-21T16:08:04;3.75;;;1.10;;
42614;SDS011;28754;47.700;7.924;2022-11-21T16:10:51;4.55;;;1.50;;
42614;SDS011;28754;47.700;7.924;2022-11-21T16:13:38;5.30;;;1.25;;
42614;SDS011;28754;47.700;7.924;2022-11-21T16:16:26;2.10;;;1.10;;
42614;SDS011;28754;47.700;7.924;2022-11-21T16:19:16;5.35;;;1.67;;
42614;SDS011;28754;47.700;7.924;2022-11-21T16:22:03;6.13;;;1.58;;
42614;SDS011;28754;47.700;7.924;2022-11-21T16:24:49;3.80;;;1.45;;
42614;SDS011;28754;47.700;7.924;2022-11-21T16:27:36;4.13;;;1.58;;
42614;SDS011;28754;47.700;7.924;2022-11-21T16:30:23;3.25;;;1.55;;
42614;SDS011;28754;47.700;7.924;2022-11-21T16:33:09;3.15;;;1.27;;
42614;SDS011;28754;47.700;7.924;2022-11-21T16:35:56;4.93;;;1.33;;
42614;SDS011;28754;47.700;7.924;2022-11-21T16:38:45;3.72;;;1.40;;
42614;SDS011;28754;47.700;7.924;2022-11-21T16:41:32;5.57;;;1.83;;
42614;SDS011;28754;47.700;7.924;2022-11-21T16:44:19;4.72;;;1.17;;
42614;SDS011;28754;47.700;7.924;2022-11-21T16:47:06;7.40;;;2.97;;
42614;SDS011;28754;47.700;7.924;2022-11-21T16:49:53;5.03;;;2.47;;
42614;SDS011;28754;47.700;7.924;2022-11-21T16:52:55;7.93;;;3.22;;
42614;SDS011;28754;47.700;7.924;2022-11-21T16:57:23;10.45;;;3.72;;
42614;SDS011;28754;47.700;7.924;2022-11-21T17:01:05;4.00;;;1.60;;
42614;SDS011;28754;47.700;7.924;2022-11-21T17:04:30;17.90;;;6.13;;
42614;SDS011;28754;47.700;7.924;2022-11-21T17:08:02;10.70;;;3.65;;
42614;SDS011;28754;47.700;7.924;2022-11-21T17:11:48;7.85;;;2.95;;
42614;SDS011;28754;47.700;7.924;2022-11-21T17:14:47;12.27;;;4.28;;
42614;SDS011;28754;47.700;7.924;2022-11-21T17:17:52;18.42;;;6.97;;
42614;SDS011;28754;47.700;7.924;2022-11-21T17:20:50;10.40;;;4.20;;
42614;SDS011;28754;47.700;7.924;2022-11-21T17:23:38;7.63;;;2.70;;
42614;SDS011;28754;47.700;7.924;2022-11-21T17:26:28;7.95;;;2.05;;
42614;SDS011;28754;47.700;7.924;2022-11-21T17:29:28;6.10;;;4.30;;
42614;SDS011;28754;47.700;7.924;2022-11-21T17:32:43;4.03;;;1.92;;
42614;SDS011;28754;47.700;7.924;2022-11-21T17:39:17;12.65;;;7.90;;
42614;SDS011;28754;47.700;7.924;2022-11-21T17:46:44;10.63;;;5.82;;
42614;SDS011;28754;47.700;7.924;2022-11-21T17:49:46;24.02;;;13.38;;
42614;SDS011;28754;47.700;7.924;2022-11-21T17:52:43;9.75;;;3.55;;
42614;SDS011;28754;47.700;7.924;2022-11-21T17:55:30;4.90;;;2.83;;
42614;SDS011;28754;47.700;7.924;2022-11-21T17:58:20;5.47;;;2.63;;
42614;SDS011;28754;47.700;7.924;2022-11-21T18:01:07;6.07;;;3.95;;
42614;SDS011;28754;47.700;7.924;2022-11-21T18:04:09;12.63;;;8.55;;
42614;SDS011;28754;47.700;7.924;2022-11-21T18:07:01;14.23;;;6.18;;
42614;SDS011;28754;47.700;7.924;2022-11-21T18:09:51;15.32;;;8.07;;
42614;SDS011;28754;47.700;7.924;2022-11-21T18:12:38;5.75;;;2.92;;
42614;SDS011;28754;47.700;7.924;2022-11-21T18:15:24;10.50;;;4.65;;
42614;SDS011;28754;47.700;7.924;2022-11-21T18:18:19;8.57;;;4.20;;
42614;SDS011;28754;47.700;7.924;2022-11-21T18:24:24;21.60;;;9.18;;
42614;SDS011;28754;47.700;7.924;2022-11-21T18:27:18;16.90;;;8.45;;
42614;SDS011;28754;47.700;7.924;2022-11-21T18:30:25;30.17;;;15.10;;
42614;SDS011;28754;47.700;7.924;2022-11-21T18:33:12;10.30;;;6.20;;
42614;SDS011;28754;47.700;7.924;2022-11-21T18:36:00;12.93;;;6.07;;
42614;SDS011;28754;47.700;7.924;2022-11-21T18:38:48;47.40;;;22.05;;
42614;SDS011;28754;47.700;7.924;2022-11-21T18:41:38;9.55;;;4.68;;
42614;SDS011;28754;47.700;7.924;2022-11-21T18:44:25;9.18;;;4.60;;
42614;SDS011;28754;47.700;7.924;2022-11-21T18:47:16;8.07;;;2.80;;
42614;SDS011;28754;47.700;7.924;2022-11-21T18:54:13;8.60;;;3.53;;
42614;SDS011;28754;47.700;7.924;2022-11-21T18:57:21;8.35;;;6.47;;
42614;SDS011;28754;47.700;7.924;2022-11-21T19:04:41;9.57;;;4.07;;
42614;SDS011;28754;47.700;7.924;2022-11-21T19:07:28;6.60;;;4.63;;
42614;SDS011;28754;47.700;7.924;2022-11-21T19:10:14;8.25;;;2.85;;
42614;SDS011;28754;47.700;7.924;2022-11-21T19:13:03;5.53;;;2.83;;
42614;SDS011;28754;47.700;7.924;2022-11-21T19:15:49;4.07;;;2.00;;
42614;SDS011;28754;47.700;7.924;2022-11-21T19:18:36;10.73;;;2.33;;
42614;SDS011;28754;47.700;7.924;2022-11-21T19:21:25;5.20;;;2.90;;
42614;SDS011;28754;47.700;7.924;2022-11-21T19:24:12;3.42;;;1.48;;
42614;SDS011;28754;47.700;7.924;2022-11-21T19:27:00;6.28;;;1.50;;
42614;SDS011;28754;47.700;7.924;2022-11-21T19:29:47;8.52;;;1.20;;
42614;SDS011;28754;47.700;7.924;2022-11-21T19:32:38;4.13;;;1.42;;
42614;SDS011;28754;47.700;7.924;2022-11-21T19:35:30;5.22;;;1.52;;
42614;SDS011;28754;47.700;7.924;2022-11-21T19:38:17;9.82;;;3.08;;
42614;SDS011;28754;47.700;7.924;2022-11-21T19:41:15;2.08;;;0.80;;
42614;SDS011;28754;47.700;7.924;2022-11-21T19:45:38;2.55;;;1.50;;
42614;SDS011;28754;47.700;7.924;2022-11-21T19:48:55;3.00;;;1.25;;
42614;SDS011;28754;47.700;7.924;2022-11-21T19:51:43;3.60;;;1.70;;
42614;SDS011;28754;47.700;7.924;2022-11-21T19:54:30;4.95;;;2.13;;
42614;SDS011;28754;47.700;7.924;2022-11-21T19:57:17;5.55;;;3.13;;
42614;SDS011;28754;47.700;7.924;2022-11-21T20:00:12;4.93;;;2.13;;